Alturas, CA

11:19 PM PDT on August 20, 2014 (GMT -0700)
Alturas Municipal | Change Station
CLOSE
Current Station
Airport
Location: Alturas,
Elevation: 4373 ft
Nearby Weather Stations

Elev 4373 ft 41.49 °N, 120.56 °W | Updated 24 minutes ago

Clear
Clear
67 °F
Feels Like 67 °F
N
7
Wind Variable Wind from WSW

Today
High -- | Low -- °F
--% Chance of Precip.
Yesterday
High -- | Low -- °F
Precip. -- in
6:16 AM 7:54 PM
Waning Crescent, 16% visible
Pressure 29.88 in
Visibility 10.0 miles
Clouds Clear
Dew Point 47 °F
Humidity 49%
Rainfall 0.00 in
Snow Depth 0 in , 1 in
UV 0 out of 12
Pollen 6.80 out of 12
Air Quality Not available.
Flu Activity Not available.
METAR KAAT 210555Z AUTO 25006KT 10SM CLR 19/08 A3002 RMK AO2 SLP118 T01940083 10294 20189 51025

More Conditions Fewer Conditions

Pressure 29.88 in
Visibility 10.0 miles
Clouds Clear
Dew Point 47 °F
Humidity 49%
Rainfall 0.00 in
Snow Depth 0 in , 1 in
UV 0 out of 12
Pollen 6.80 out of 12
Air Quality Not available.
Flu Activity Not available.
METAR KAAT 210555Z AUTO 25006KT 10SM CLR 19/08 A3002 RMK AO2 SLP118 T01940083 10294 20189 51025

More Conditions Fewer Conditions

10-Day Weather Forecast

Almanac

Astronomy

Aug. 20, 2014 Rise Set
Actual Time 6:16 AM PDT 7:54 PM PDT
Civil Twilight 5:46 AM PDT 8:23 PM PDT
Nautical Twilight 5:11 AM PDT 8:58 PM PDT
Astronomical Twilight 4:33 AM PDT 9:36 PM PDT
Moon 1:59 AM PDT (8/20) 4:44 PM PDT (8/20)
Length of Visible Light 14h 36m
Length of Day
13h 37m
Tomorrow will be 2m 32s shorter.
Waning Crescent, 16% of the Moon is Illuminated
Aug 21
Waning Crescent
Aug 25
New
Sep 2
First Quarter
Sep 8
Full
Sep 15
Last Quarter

Community

WunderPhotos

Upload Photos

1,745,858 photos uploaded!

Nearby

Snow Depth

Station Depth Elevation
Cedar Pass 0 in 7100 ft
Adin Mountain 1 in 6200 ft
Echo Peak 1 in 7800 ft
Hagan's Meadow 0 in 8000 ft
Forestdale Creek 0 in 8029 ft

Earthquake Activity

City Distance Mag. Time & Date
No recent earthquake activity has been reported nearby.
Minimum magnitude displayed is 2.5.

Coastal Water Temperatures

Place Temperature
No Stations Reporting

Nearby Weather Stations